Time;durP1;ratioP1;P1;durP2;ratioP2;P2;SDS_P1;SDS_P2;PMS_P1;PMS_P2;Temp;Humidity;BMP_temperature;BMP_pressure;BME280_temperature;BME280_humidity;BME280_pressure;Samples;Min_cycle;Max_cycle;Signal;HPM_P1;HPM_P2
2022/01/23 00:00:51;;;;;;;13.70;11.00;;;6.40;99.90;;;;;;5053498;28;20212;-54
2022/01/23 00:03:20;;;;;;;15.87;11.33;;;6.50;99.90;;;;;;5053399;28;20259;-53
2022/01/23 00:05:49;;;;;;;13.97;10.77;;;6.60;99.90;;;;;;5053216;28;20201;-57
2022/01/23 00:08:20;;;;;;;13.00;10.53;;;6.60;99.90;;;;;;5053502;28;20235;-52
2022/01/23 00:10:46;;;;;;;14.23;11.27;;;6.60;99.90;;;;;;5053336;28;20657;-55
2022/01/23 00:13:23;;;;;;;15.23;11.30;;;6.60;99.90;;;;;;5053221;28;20206;-54
2022/01/23 00:18:35;;;;;;;14.10;11.13;;;6.30;99.90;;;;;;5053210;28;20254;-53
2022/01/23 00:21:02;;;;;;;14.50;10.80;;;6.40;99.90;;;;;;5052802;28;20252;-53
2022/01/23 00:30:17;;;;;;;15.33;11.63;;;6.60;99.90;;;;;;5053215;28;20217;-53
2022/01/23 00:31:47;;;;;;;16.97;11.77;;;7.00;99.90;;;;;;5053384;28;20597;-53
2022/01/23 00:34:15;;;;;;;15.00;11.50;;;7.00;99.90;;;;;;5052989;28;20263;-53
2022/01/23 00:36:42;;;;;;;13.97;11.43;;;7.00;99.90;;;;;;5052558;28;20233;-53
2022/01/23 00:39:09;;;;;;;14.37;11.63;;;7.00;99.90;;;;;;5052232;28;20259;-53
2022/01/23 00:41:35;;;;;;;13.70;11.27;;;7.00;99.90;;;;;;5052533;28;20356;-53
2022/01/23 00:44:02;;;;;;;16.03;11.77;;;7.10;99.90;;;;;;5052578;28;20209;-53
2022/01/23 00:46:33;;;;;;;16.37;11.47;;;7.30;99.90;;;;;;5052511;28;20221;-53
2022/01/23 00:49:25;;;;;;;13.90;11.50;;;7.30;99.90;;;;;;5052463;28;20247;-54
2022/01/23 00:51:55;;;;;;;15.40;11.57;;;7.40;99.90;;;;;;5052745;28;20229;-54
2022/01/23 00:54:23;;;;;;;16.77;10.83;;;7.40;99.90;;;;;;5052522;28;20745;-55
2022/01/23 00:56:50;;;;;;;12.93;11.37;;;7.40;99.90;;;;;;5052369;28;20306;-56
2022/01/23 00:59:17;;;;;;;16.97;12.20;;;7.50;99.90;;;;;;5051969;28;20206;-54
2022/01/23 01:01:44;;;;;;;14.90;11.87;;;7.50;99.90;;;;;;5052426;28;20202;-53
2022/01/23 01:04:10;;;;;;;14.87;11.57;;;7.50;99.90;;;;;;5052248;28;20232;-56
2022/01/23 01:06:37;;;;;;;13.57;11.03;;;7.50;99.90;;;;;;5052229;28;20229;-54
2022/01/23 01:09:07;;;;;;;13.00;10.27;;;7.50;99.90;;;;;;5052255;28;20190;-54
2022/01/23 01:11:55;;;;;;;14.40;10.40;;;7.40;99.90;;;;;;5052317;28;20216;-54
2022/01/23 01:14:35;;;;;;;13.20;9.70;;;7.40;99.90;;;;;;5052211;28;20213;-53
2022/01/23 01:17:10;;;;;;;14.67;10.33;;;7.40;99.90;;;;;;5051735;28;20229;-55
2022/01/23 01:30:42;;;;;;;13.27;10.23;;;7.50;99.90;;;;;;5052211;28;20688;-54
2022/01/23 01:33:21;;;;;;;13.97;10.40;;;7.50;99.90;;;;;;5052063;28;20300;-55
2022/01/23 01:35:54;;;;;;;16.03;10.97;;;7.60;99.90;;;;;;5051912;28;20221;-53
2022/01/23 01:38:21;;;;;;;13.63;10.90;;;7.60;99.90;;;;;;5051525;28;20732;-55
2022/01/23 01:40:49;;;;;;;15.50;11.83;;;7.50;99.90;;;;;;5051905;28;20584;-54
2022/01/23 01:43:16;;;;;;;16.57;12.33;;;7.40;99.90;;;;;;5051843;28;20209;-54
2022/01/23 01:45:44;;;;;;;13.83;10.73;;;7.50;99.90;;;;;;5051656;28;20205;-53
2022/01/23 01:48:13;;;;;;;12.43;10.10;;;7.50;99.90;;;;;;5051442;28;20686;-54
2022/01/23 01:50:45;;;;;;;12.20;10.23;;;7.40;99.90;;;;;;5051579;28;20620;-54
2022/01/23 01:53:12;;;;;;;14.73;10.93;;;7.40;99.90;;;;;;5055770;28;20213;-54
2022/01/23 01:55:42;;;;;;;12.67;10.40;;;7.40;99.90;;;;;;5055558;28;20700;-54
2022/01/23 01:58:32;;;;;;;13.50;10.50;;;7.50;99.90;;;;;;5055942;28;20312;-54
2022/01/23 02:01:02;;;;;;;15.27;11.20;;;7.50;99.90;;;;;;5055605;28;20217;-54
2022/01/23 02:09:12;;;;;;;14.53;11.37;;;7.50;99.90;;;;;;5055281;28;20209;-55
2022/01/23 02:12:03;;;;;;;14.70;11.47;;;7.50;99.90;;;;;;5055511;28;20275;-54
2022/01/23 02:14:40;;;;;;;14.13;10.87;;;7.60;99.90;;;;;;5055273;28;20582;-53
2022/01/23 02:17:19;;;;;;;14.37;11.10;;;7.60;99.90;;;;;;5054964;28;20236;-54
2022/01/23 02:22:58;;;;;;;13.93;11.27;;;7.60;99.90;;;;;;5055403;28;20221;-54
2022/01/23 02:50:32;;;;;;;16.20;11.63;;;7.60;99.90;;;;;;5055302;28;20241;-54
2022/01/23 02:55:58;;;;;;;15.17;11.20;;;7.40;99.90;;;;;;5044771;28;20319;-54
2022/01/23 02:58:32;;;;;;;16.13;10.70;;;7.40;99.90;;;;;;5054299;28;20697;-54
2022/01/23 03:01:09;;;;;;;14.93;11.13;;;7.50;99.90;;;;;;5054486;28;20237;-54
2022/01/23 03:03:39;;;;;;;14.77;11.33;;;7.50;99.90;;;;;;5052965;28;20220;-55
2022/01/23 03:06:34;;;;;;;13.60;11.03;;;7.50;99.90;;;;;;5054492;28;20380;-55
2022/01/23 03:09:50;;;;;;;14.73;11.23;;;7.60;99.90;;;;;;5054256;28;20209;-54
2022/01/23 03:12:11;;;;;;;12.60;10.57;;;7.60;99.90;;;;;;5053961;28;20737;-54
2022/01/23 03:14:48;;;;;;;14.47;10.90;;;7.70;99.90;;;;;;5054339;28;20745;-54
2022/01/23 03:25:57;;;;;;;15.27;10.40;;;6.30;99.90;;;;;;5054100;28;20277;-55
2022/01/23 03:28:35;;;;;;;17.63;11.33;;;6.40;99.90;;;;;;5053592;28;20275;-54
2022/01/23 03:31:08;;;;;;;15.17;10.90;;;6.40;99.90;;;;;;5054182;28;20205;-53
2022/01/23 03:33:39;;;;;;;15.97;11.47;;;6.50;99.90;;;;;;5053974;28;20209;-53
2022/01/23 03:36:06;;;;;;;17.13;12.30;;;6.60;99.90;;;;;;5053785;28;20610;-53
2022/01/23 03:38:33;;;;;;;14.93;11.53;;;6.70;99.90;;;;;;5053592;28;20678;-54
2022/01/23 03:41:01;;;;;;;14.27;11.27;;;6.70;99.90;;;;;;5053561;28;20221;-53
2022/01/23 03:43:30;;;;;;;14.53;11.10;;;6.80;99.90;;;;;;5053889;28;20624;-54
2022/01/23 03:46:20;;;;;;;14.50;11.40;;;6.80;99.90;;;;;;5055007;28;20204;-54
2022/01/23 03:51:30;;;;;;;17.03;12.47;;;6.90;99.90;;;;;;5053638;28;20284;-54
2022/01/23 03:53:57;;;;;;;15.50;12.23;;;7.00;99.90;;;;;;5053535;28;20606;-54
2022/01/23 03:56:25;;;;;;;16.33;12.47;;;7.00;99.90;;;;;;5053306;28;20234;-54
2022/01/23 03:58:51;;;;;;;14.97;11.70;;;7.00;99.90;;;;;;5053258;28;20209;-54
2022/01/23 04:01:18;;;;;;;16.03;12.53;;;6.90;99.90;;;;;;5053247;28;20689;-53
2022/01/23 04:03:45;;;;;;;17.33;13.07;;;6.80;99.90;;;;;;5053651;28;20303;-56
2022/01/23 04:06:12;;;;;;;17.93;12.77;;;6.60;99.90;;;;;;5052899;28;20201;-53
2022/01/23 04:08:38;;;;;;;16.43;12.80;;;6.50;99.90;;;;;;5053169;28;20205;-53
2022/01/23 04:11:05;;;;;;;18.67;13.30;;;6.60;99.90;;;;;;5053261;28;20217;-55
2022/01/23 04:13:43;;;;;;;18.60;13.00;;;6.80;99.90;;;;;;5053306;28;20206;-54
2022/01/23 04:16:27;;;;;;;16.77;13.10;;;6.90;99.90;;;;;;5052817;28;20217;-54
2022/01/23 04:32:57;;;;;;;17.23;12.77;;;7.40;99.90;;;;;;5052861;28;20205;-54
2022/01/23 04:35:45;;;;;;;17.90;12.93;;;7.30;99.90;;;;;;5053031;28;20213;-54
2022/01/23 04:46:53;;;;;;;18.63;13.87;;;7.30;99.90;;;;;;5052401;28;20201;-53
2022/01/23 05:00:09;;;;;;;17.77;13.10;;;7.50;99.90;;;;;;5052467;28;20719;-54
2022/01/23 05:03:12;;;;;;;19.00;14.17;;;7.50;99.90;;;;;;5051981;28;20201;-54
2022/01/23 05:05:36;;;;;;;20.73;13.67;;;7.60;99.90;;;;;;5052118;28;20208;-56
2022/01/23 05:08:06;;;;;;;17.53;12.67;;;7.50;99.90;;;;;;5052481;28;20229;-54
2022/01/23 05:10:34;;;;;;;23.30;13.97;;;7.50;99.90;;;;;;5052234;28;20205;-54
2022/01/23 05:13:01;;;;;;;18.70;13.77;;;7.40;99.90;;;;;;5052430;28;20241;-54
2022/01/23 05:15:28;;;;;;;17.40;13.93;;;7.20;99.90;;;;;;5052292;28;20206;-53
2022/01/23 05:17:56;;;;;;;19.50;14.30;;;7.10;99.90;;;;;;5051720;28;20230;-54
2022/01/23 05:20:26;;;;;;;18.37;14.03;;;7.20;99.90;;;;;;5052131;28;20578;-53
2022/01/23 05:22:58;;;;;;;17.97;14.23;;;7.20;99.90;;;;;;5052066;28;20579;-53
2022/01/23 05:25:28;;;;;;;17.90;14.10;;;7.30;99.90;;;;;;5051940;28;20201;-53
2022/01/23 05:27:55;;;;;;;20.53;14.67;;;7.40;99.90;;;;;;5051209;28;20705;-53
2022/01/23 05:30:23;;;;;;;18.10;13.43;;;7.40;99.90;;;;;;5052272;28;20300;-53
2022/01/23 05:32:49;;;;;;;17.70;13.37;;;7.40;99.90;;;;;;5052139;28;20300;-55
2022/01/23 05:35:19;;;;;;;17.50;13.77;;;7.40;99.90;;;;;;5052006;28;20205;-53
2022/01/23 05:37:46;;;;;;;16.63;13.70;;;7.30;99.90;;;;;;5051578;28;20610;-54
2022/01/23 05:40:16;;;;;;;18.43;14.13;;;7.20;99.90;;;;;;5051875;28;20233;-55
2022/01/23 05:42:43;;;;;;;20.17;15.27;;;7.20;99.90;;;;;;5052310;28;20209;-54
2022/01/23 05:45:11;;;;;;;19.73;14.83;;;7.20;99.90;;;;;;5051949;28;20591;-54
2022/01/23 05:47:37;;;;;;;17.27;13.63;;;7.20;99.90;;;;;;5051536;28;20728;-53
2022/01/23 05:50:05;;;;;;;18.50;13.67;;;7.20;99.90;;;;;;5051857;28;20206;-53
2022/01/23 05:52:34;;;;;;;19.43;14.20;;;7.20;99.90;;;;;;5052128;28;20255;-53
2022/01/23 05:55:01;;;;;;;19.63;15.37;;;7.20;99.90;;;;;;5051889;28;20621;-54
2022/01/23 05:57:28;;;;;;;19.80;14.20;;;7.30;99.90;;;;;;5051354;28;20233;-54
2022/01/23 05:59:55;;;;;;;20.20;15.03;;;7.40;99.90;;;;;;5051813;28;20213;-53
2022/01/23 06:02:21;;;;;;;17.23;13.20;;;7.40;99.90;;;;;;5051788;28;20271;-53
2022/01/23 06:04:48;;;;;;;21.40;15.57;;;7.50;99.90;;;;;;5052013;28;20735;-53
2022/01/23 06:07:15;;;;;;;23.20;15.43;;;7.40;99.90;;;;;;5051436;28;20234;-53
2022/01/23 06:09:43;;;;;;;20.50;14.70;;;7.40;99.90;;;;;;5051572;28;20209;-54
2022/01/23 06:12:11;;;;;;;20.13;15.03;;;7.20;99.90;;;;;;5051686;28;20240;-53
2022/01/23 06:14:37;;;;;;;18.90;14.70;;;6.90;99.90;;;;;;5051555;28;20205;-53
2022/01/23 06:17:05;;;;;;;19.20;13.80;;;6.70;99.90;;;;;;5051317;28;20229;-55
2022/01/23 06:19:33;;;;;;;19.87;15.10;;;6.70;99.90;;;;;;5051183;28;20300;-53
2022/01/23 06:21:59;;;;;;;19.47;15.37;;;6.70;99.90;;;;;;5051618;28;20217;-53
2022/01/23 06:24:29;;;;;;;21.40;14.63;;;6.90;99.90;;;;;;5051565;28;20205;-55
2022/01/23 06:26:59;;;;;;;22.43;16.60;;;7.00;99.90;;;;;;5051438;28;20309;-54
2022/01/23 06:29:29;;;;;;;22.97;16.90;;;7.10;99.90;;;;;;5051369;28;20212;-53
2022/01/23 06:31:57;;;;;;;23.27;16.83;;;7.10;99.90;;;;;;5051282;28;20209;-54
2022/01/23 06:34:26;;;;;;;19.93;15.07;;;7.20;99.90;;;;;;5051483;28;20210;-54
2022/01/23 06:36:54;;;;;;;25.80;17.53;;;7.30;99.90;;;;;;5051306;28;20261;-56
2022/01/23 06:39:22;;;;;;;22.30;15.80;;;7.30;99.90;;;;;;5055052;28;20221;-54
2022/01/23 06:41:49;;;;;;;22.80;15.63;;;7.30;99.90;;;;;;5054728;28;20681;-55
2022/01/23 06:44:17;;;;;;;21.87;15.63;;;7.30;99.90;;;;;;5054481;28;20216;-54
2022/01/23 06:46:44;;;;;;;21.80;14.80;;;7.30;99.90;;;;;;5054877;28;20279;-54
2022/01/23 06:49:11;;;;;;;19.73;14.43;;;7.20;99.90;;;;;;5054807;28;20248;-55
2022/01/23 06:51:38;;;;;;;35.00;23.60;;;7.20;99.90;;;;;;5054895;28;20209;-53
2022/01/23 06:54:05;;;;;;;23.20;16.33;;;7.20;99.90;;;;;;5054556;28;20701;-53
2022/01/23 06:56:32;;;;;;;46.23;30.10;;;7.20;99.90;;;;;;5054806;28;20229;-55
2022/01/23 06:58:58;;;;;;;26.30;18.60;;;7.20;99.90;;;;;;5054711;28;20205;-55
2022/01/23 07:01:26;;;;;;;22.80;15.97;;;7.10;99.90;;;;;;5054824;28;20213;-56
2022/01/23 07:03:53;;;;;;;24.53;17.47;;;7.20;99.90;;;;;;5054558;28;20206;-56
2022/01/23 07:06:20;;;;;;;20.83;15.53;;;7.20;99.90;;;;;;5054324;28;20539;-53
2022/01/23 07:08:46;;;;;;;23.23;15.40;;;7.20;99.90;;;;;;5054527;28;20621;-53
2022/01/23 07:11:13;;;;;;;20.33;14.07;;;7.30;99.90;;;;;;5054219;28;20210;-54
2022/01/23 07:13:40;;;;;;;23.30;17.10;;;7.30;99.90;;;;;;5054193;28;20232;-54
2022/01/23 07:16:07;;;;;;;42.03;26.77;;;7.20;99.90;;;;;;5054276;28;20205;-53
2022/01/23 07:18:35;;;;;;;38.13;24.40;;;7.20;99.90;;;;;;5053921;28;20271;-55
2022/01/23 07:21:02;;;;;;;22.83;14.60;;;7.30;99.90;;;;;;5054194;28;20201;-55
2022/01/23 07:23:28;;;;;;;27.63;19.20;;;7.30;99.90;;;;;;5054083;28;20217;-53
2022/01/23 07:25:56;;;;;;;21.40;15.17;;;7.30;99.90;;;;;;5053874;28;20213;-53
2022/01/23 07:28:32;;;;;;;19.63;14.17;;;7.30;99.90;;;;;;5053765;28;20237;-54
2022/01/23 07:31:03;;;;;;;19.57;14.40;;;7.30;99.90;;;;;;5054081;28;20288;-54
2022/01/23 07:33:30;;;;;;;16.30;13.37;;;7.20;99.90;;;;;;5053976;28;20202;-55
2022/01/23 07:35:58;;;;;;;20.00;13.97;;;7.20;99.90;;;;;;5053811;28;20296;-54
2022/01/23 07:38:24;;;;;;;19.93;14.43;;;7.20;99.90;;;;;;5053367;28;20275;-54
2022/01/23 07:40:51;;;;;;;20.10;15.00;;;7.20;99.90;;;;;;5053846;28;20205;-55
2022/01/23 07:43:18;;;;;;;17.90;13.70;;;7.20;99.90;;;;;;5053892;28;20255;-55
2022/01/23 07:45:45;;;;;;;26.10;18.77;;;6.90;99.90;;;;;;5054207;28;20205;-55
2022/01/23 07:48:12;;;;;;;20.70;14.73;;;6.70;99.90;;;;;;5053250;28;20226;-53
2022/01/23 07:50:39;;;;;;;20.63;14.83;;;6.70;99.90;;;;;;5052613;28;20214;-53
2022/01/23 07:53:07;;;;;;;19.07;15.33;;;7.00;99.90;;;;;;5053402;28;20210;-53
2022/01/23 07:55:34;;;;;;;19.27;14.77;;;7.10;99.90;;;;;;5053590;28;20205;-53
2022/01/23 07:58:05;;;;;;;28.60;21.37;;;7.10;99.90;;;;;;5053129;28;20234;-53
2022/01/23 08:00:33;;;;;;;27.47;16.23;;;7.00;99.90;;;;;;5053680;28;20256;-53
2022/01/23 08:03:00;;;;;;;24.20;16.37;;;7.10;99.90;;;;;;5053934;28;20228;-53
2022/01/23 08:05:26;;;;;;;22.60;16.90;;;7.20;99.90;;;;;;5053411;28;20202;-54
2022/01/23 08:07:53;;;;;;;23.83;16.60;;;7.40;99.90;;;;;;5053490;28;20237;-53
2022/01/23 08:10:21;;;;;;;26.17;18.20;;;7.50;99.90;;;;;;5053461;28;20214;-53
2022/01/23 08:12:48;;;;;;;24.50;17.07;;;7.60;99.90;;;;;;5053394;28;20212;-53
2022/01/23 08:15:15;;;;;;;25.60;17.60;;;7.80;99.90;;;;;;5053665;28;20218;-54
2022/01/23 08:17:42;;;;;;;26.17;17.80;;;7.80;99.90;;;;;;5052705;28;20225;-54
2022/01/23 08:20:09;;;;;;;24.33;18.50;;;8.00;99.90;;;;;;5053380;28;20553;-55
2022/01/23 08:22:36;;;;;;;24.70;19.03;;;8.00;99.90;;;;;;5052961;28;20669;-53
2022/01/23 08:25:05;;;;;;;38.83;29.07;;;8.00;99.90;;;;;;5052780;28;20210;-53
2022/01/23 08:27:34;;;;;;;26.77;20.13;;;8.10;99.90;;;;;;5052759;28;20271;-54
2022/01/23 08:30:01;;;;;;;23.13;16.90;;;8.20;99.90;;;;;;5052677;28;20699;-53
2022/01/23 08:32:28;;;;;;;29.93;20.40;;;8.30;99.90;;;;;;5052790;28;20696;-53
2022/01/23 08:34:55;;;;;;;24.90;18.03;;;8.30;99.90;;;;;;5052934;28;20206;-55
2022/01/23 08:37:22;;;;;;;27.07;19.93;;;8.30;99.90;;;;;;5052548;28;20580;-53
2022/01/23 08:39:49;;;;;;;21.43;16.17;;;8.40;99.90;;;;;;5052578;28;20245;-54
2022/01/23 08:42:18;;;;;;;21.97;15.90;;;8.40;99.90;;;;;;5052589;28;20214;-54
2022/01/23 08:44:47;;;;;;;21.33;16.60;;;8.50;99.90;;;;;;5052929;28;20213;-54
2022/01/23 08:47:15;;;;;;;28.50;17.77;;;8.50;99.90;;;;;;5052029;28;20709;-55
2022/01/23 08:49:46;;;;;;;21.67;16.80;;;8.50;99.90;;;;;;5052585;28;20216;-54
2022/01/23 08:52:16;;;;;;;28.90;20.23;;;8.40;99.90;;;;;;5053832;28;20681;-54
2022/01/23 08:54:44;;;;;;;20.73;16.90;;;8.50;99.90;;;;;;5052683;28;20209;-53
2022/01/23 08:57:12;;;;;;;25.50;17.23;;;8.50;99.90;;;;;;5052351;28;20225;-54
2022/01/23 08:59:39;;;;;;;22.07;16.37;;;8.50;99.90;;;;;;5052151;28;20213;-54
2022/01/23 09:02:08;;;;;;;21.43;16.10;;;8.50;99.90;;;;;;5052528;28;20209;-56
2022/01/23 09:04:35;;;;;;;21.17;15.63;;;8.50;99.90;;;;;;5052654;28;20237;-53
2022/01/23 09:07:03;;;;;;;22.60;15.33;;;8.50;99.90;;;;;;5052261;28;20244;-55
2022/01/23 09:09:32;;;;;;;20.80;15.70;;;8.70;99.90;;;;;;5052170;28;20209;-56
2022/01/23 09:12:04;;;;;;;21.03;16.90;;;8.80;99.90;;;;;;5052312;28;20712;-56
2022/01/23 09:14:31;;;;;;;19.57;15.63;;;9.00;99.90;;;;;;5052009;28;20209;-56
2022/01/23 09:16:59;;;;;;;24.57;16.27;;;9.20;99.90;;;;;;5052142;28;20593;-56
2022/01/23 09:19:29;;;;;;;24.97;16.87;;;9.30;99.90;;;;;;5051768;28;20233;-56
2022/01/23 09:21:57;;;;;;;21.30;16.07;;;9.40;99.90;;;;;;5051952;28;20674;-56
2022/01/23 09:24:25;;;;;;;19.97;15.13;;;9.50;99.90;;;;;;5051958;28;20201;-56
2022/01/23 09:26:55;;;;;;;21.63;15.07;;;9.60;99.90;;;;;;5052023;28;20233;-55
2022/01/23 09:29:31;;;;;;;20.77;15.70;;;9.60;99.90;;;;;;5052107;28;20203;-55
2022/01/23 09:31:58;;;;;;;19.63;15.43;;;9.80;99.90;;;;;;5052218;28;20208;-56
2022/01/23 09:34:29;;;;;;;19.10;15.43;;;9.90;99.90;;;;;;5052111;28;20225;-57
2022/01/23 09:36:57;;;;;;;18.87;15.27;;;9.90;99.90;;;;;;5051866;28;20713;-56
2022/01/23 09:39:26;;;;;;;21.77;15.03;;;9.80;99.90;;;;;;5051348;28;20221;-56
2022/01/23 09:41:59;;;;;;;19.63;15.50;;;9.50;99.90;;;;;;5051858;28;20209;-56
2022/01/23 09:44:28;;;;;;;19.67;15.07;;;9.30;99.90;;;;;;5051713;28;20580;-57
2022/01/23 09:46:56;;;;;;;22.77;15.63;;;9.20;99.90;;;;;;5051580;28;20725;-55
2022/01/23 09:49:26;;;;;;;21.80;15.70;;;9.20;99.90;;;;;;5051943;28;20197;-56
2022/01/23 09:51:59;;;;;;;21.83;14.87;;;9.40;99.90;;;;;;5051602;28;20217;-61
2022/01/23 09:54:29;;;;;;;17.83;14.50;;;9.50;99.90;;;;;;5051950;28;20205;-55
2022/01/23 09:56:59;;;;;;;19.77;15.60;;;9.70;99.90;;;;;;5051616;28;20321;-56
2022/01/23 09:59:26;;;;;;;18.93;14.70;;;9.90;99.90;;;;;;5051624;28;20237;-57
2022/01/23 10:01:56;;;;;;;19.53;14.13;;;9.90;99.90;;;;;;5051424;28;20206;-55
2022/01/23 10:04:23;;;;;;;20.03;16.13;;;10.00;99.90;;;;;;5051380;28;20289;-57
2022/01/23 10:06:49;;;;;;;20.30;15.20;;;10.10;99.90;;;;;;5051528;28;20523;-56
2022/01/23 10:09:19;;;;;;;20.30;15.57;;;10.10;99.90;;;;;;5051514;28;20735;-56
2022/01/23 10:11:48;;;;;;;17.47;13.63;;;10.00;99.90;;;;;;5051649;28;20210;-57
2022/01/23 10:14:16;;;;;;;22.13;14.83;;;10.10;99.90;;;;;;5055235;28;20213;-54
2022/01/23 10:16:44;;;;;;;18.93;14.73;;;10.00;99.90;;;;;;5055054;28;20229;-56
2022/01/23 10:19:10;;;;;;;17.87;13.93;;;10.00;99.90;;;;;;5055293;28;20232;-57
2022/01/23 10:21:39;;;;;;;13.07;10.53;;;10.20;99.90;;;;;;5055481;28;20217;-56
2022/01/23 10:24:07;;;;;;;15.40;12.00;;;10.30;99.90;;;;;;5055334;28;20201;-56
2022/01/23 10:26:49;;;;;;;13.50;11.13;;;10.30;99.90;;;;;;5054994;28;20233;-55
2022/01/23 10:29:19;;;;;;;14.50;11.57;;;10.30;99.90;;;;;;5054794;28;20308;-56
2022/01/23 10:32:03;;;;;;;14.43;11.40;;;10.40;99.90;;;;;;5055370;28;20209;-55
2022/01/23 10:34:54;;;;;;;13.27;10.83;;;10.40;99.90;;;;;;5055390;28;20209;-56
2022/01/23 10:37:28;;;;;;;12.93;10.50;;;10.50;99.90;;;;;;5054894;28;20268;-56
2022/01/23 10:39:56;;;;;;;13.53;11.13;;;10.50;99.90;;;;;;5054418;28;20236;-56
2022/01/23 10:42:49;;;;;;;11.87;9.77;;;10.40;99.90;;;;;;5054775;28;20216;-57
2022/01/23 10:48:36;;;;;;;13.20;10.23;;;10.50;99.90;;;;;;5054569;28;20590;-55
2022/01/23 10:51:23;;;;;;;10.83;8.83;;;10.70;99.90;;;;;;5055094;28;20214;-56
2022/01/23 10:54:05;;;;;;;11.03;9.47;;;10.90;99.90;;;;;;5054696;28;20604;-55
2022/01/23 10:56:34;;;;;;;12.40;9.60;;;10.90;99.90;;;;;;5054306;28;20234;-56
2022/01/23 10:59:05;;;;;;;12.60;10.17;;;11.00;99.90;;;;;;5054125;28;20593;-56
2022/01/23 11:01:32;;;;;;;10.67;9.23;;;11.10;99.90;;;;;;5054137;28;20678;-56
2022/01/23 11:04:07;;;;;;;11.87;9.40;;;11.00;99.90;;;;;;5051307;28;20217;-56
2022/01/23 11:06:33;;;;;;;14.53;10.50;;;11.00;99.90;;;;;;5078402;22;20237;-62
2022/01/23 11:09:10;;;;;;;13.00;9.97;;;11.10;99.90;;;;;;5053769;28;20213;-60
2022/01/23 11:11:45;;;;;;;14.00;10.70;;;11.20;99.90;;;;;;5054353;28;20212;-65
2022/01/23 11:19:46;;;;;;;11.90;10.00;;;11.60;99.90;;;;;;5054514;28;20328;-65
2022/01/23 11:22:17;;;;;;;12.93;9.90;;;11.70;99.90;;;;;;5053991;28;20683;-66
2022/01/23 11:24:47;;;;;;;11.23;9.40;;;11.60;99.90;;;;;;5052755;28;20241;-66
2022/01/23 11:27:15;;;;;;;11.10;8.50;;;11.50;99.90;;;;;;5053995;28;20264;-66
2022/01/23 11:29:58;;;;;;;11.27;9.33;;;11.40;99.90;;;;;;5053601;28;20300;-63
2022/01/23 11:32:30;;;;;;;12.90;9.50;;;11.50;99.90;;;;;;5054144;28;20209;-63
2022/01/23 11:35:04;;;;;;;12.83;9.27;;;11.40;99.90;;;;;;5054009;28;20209;-60
2022/01/23 11:37:31;;;;;;;12.90;9.43;;;11.50;99.90;;;;;;5053590;28;20236;-62
2022/01/23 11:40:04;;;;;;;11.67;9.63;;;11.60;99.90;;;;;;5053320;28;20226;-62
2022/01/23 11:54:05;;;;;;;11.20;9.43;;;11.50;99.90;;;;;;5016422;28;20202;-62
2022/01/23 11:56:46;;;;;;;11.83;9.27;;;11.30;99.90;;;;;;5025158;28;20199;-60
2022/01/23 11:59:33;;;;;;;11.10;9.30;;;11.20;99.90;;;;;;5034613;28;20787;-60
2022/01/23 12:02:32;;;;;;;8.97;7.90;;;11.20;99.90;;;;;;5053277;28;20201;-62
2022/01/23 12:05:32;;;;;;;9.43;7.70;;;11.00;99.90;;;;;;5033313;28;20698;-62
2022/01/23 12:08:37;;;;;;;9.90;7.90;;;11.00;99.90;;;;;;5037501;28;20328;-59
2022/01/23 12:17:11;;;;;;;9.07;7.07;;;10.90;99.90;;;;;;5048819;28;20637;-63
2022/01/23 12:19:46;;;;;;;8.43;7.17;;;10.80;99.90;;;;;;5032318;28;20253;-63
2022/01/23 12:22:30;;;;;;;10.20;8.23;;;10.70;99.90;;;;;;5040304;28;20197;-62
2022/01/23 12:24:58;;;;;;;8.87;6.70;;;10.80;99.90;;;;;;5029215;28;20280;-60
2022/01/23 12:27:27;;;;;;;9.07;6.30;;;10.90;99.90;;;;;;5032701;28;20233;-59
2022/01/23 12:29:55;;;;;;;9.30;7.30;;;10.80;99.90;;;;;;5032208;28;20202;-60
2022/01/23 12:32:26;;;;;;;8.90;7.53;;;10.70;99.90;;;;;;5032471;28;20693;-59
2022/01/23 12:34:57;;;;;;;9.10;7.63;;;10.80;99.90;;;;;;5032494;28;20207;-61
2022/01/23 12:37:24;;;;;;;8.67;6.90;;;10.90;99.90;;;;;;5037169;28;20229;-61
2022/01/23 12:40:27;;;;;;;8.80;6.73;;;11.00;99.90;;;;;;5052133;28;20248;-61
2022/01/23 12:43:04;;;;;;;8.40;5.57;;;10.90;99.90;;;;;;5048983;28;20209;-66
2022/01/23 12:45:49;;;;;;;6.97;6.00;;;10.90;99.90;;;;;;5052574;28;20610;-68
2022/01/23 12:48:48;;;;;;;12.40;8.10;;;10.50;99.90;;;;;;5052250;28;20222;-66
2022/01/23 12:51:37;;;;;;;9.53;6.33;;;10.30;99.90;;;;;;5043458;28;20205;-65
2022/01/23 12:54:26;;;;;;;8.33;6.27;;;10.60;99.90;;;;;;5052208;28;20681;-64
2022/01/23 12:56:54;;;;;;;6.93;5.47;;;10.70;99.90;;;;;;5051975;28;20230;-64
2022/01/23 12:59:29;;;;;;;7.50;5.83;;;10.90;99.90;;;;;;5051554;28;20226;-67
2022/01/23 13:02:01;;;;;;;5.17;3.97;;;11.10;99.90;;;;;;5052136;28;20236;-61
2022/01/23 13:04:33;;;;;;;3.63;3.07;;;11.10;99.90;;;;;;5052194;28;20209;-63
2022/01/23 13:07:10;;;;;;;4.63;3.90;;;11.10;99.90;;;;;;5051909;28;20319;-67
2022/01/23 13:09:44;;;;;;;5.37;4.77;;;11.10;99.90;;;;;;5051528;28;20581;-65
2022/01/23 13:12:15;;;;;;;4.93;4.20;;;11.10;99.90;;;;;;5052200;28;20210;-65
2022/01/23 13:14:52;;;;;;;4.73;3.57;;;11.10;99.90;;;;;;5052137;28;20213;-65
2022/01/23 13:17:40;;;;;;;5.70;4.40;;;11.00;99.90;;;;;;5051816;28;20224;-64
2022/01/23 13:29:30;;;;;;;3.80;3.07;;;11.00;99.90;;;;;;5051943;28;20295;-64
2022/01/23 13:31:39;;;;;;;4.00;3.27;;;11.00;99.90;;;;;;5051576;28;20649;-65
2022/01/23 13:34:21;;;;;;;3.10;2.50;;;10.80;99.90;;;;;;5052027;28;20193;-64
2022/01/23 13:37:00;;;;;;;3.37;2.40;;;10.70;99.90;;;;;;5051456;28;20233;-65
2022/01/23 13:39:31;;;;;;;3.23;2.80;;;10.50;99.90;;;;;;5051540;28;20233;-65
2022/01/23 13:48:27;;;;;;;3.87;3.10;;;10.30;99.90;;;;;;5053468;28;20267;-65
2022/01/23 13:53:50;;;;;;;3.50;3.10;;;10.20;99.90;;;;;;5052183;28;20661;-65
2022/01/23 13:59:11;;;;;;;3.77;2.90;;;10.40;99.90;;;;;;5055218;28;20225;-66
2022/01/23 14:01:50;;;;;;;3.60;2.63;;;10.20;99.90;;;;;;5055604;28;20209;-63
2022/01/23 14:04:18;;;;;;;3.30;2.67;;;10.00;99.90;;;;;;5056783;28;20250;-61
2022/01/23 14:06:45;;;;;;;5.07;3.50;;;9.90;99.90;;;;;;5056559;28;20229;-62
2022/01/23 14:09:13;;;;;;;3.30;2.87;;;9.90;99.90;;;;;;5055572;28;20586;-61
2022/01/23 14:11:42;;;;;;;3.40;2.83;;;9.80;99.90;;;;;;5055776;28;20209;-61
2022/01/23 14:14:16;;;;;;;3.33;2.80;;;9.80;99.90;;;;;;5055709;28;20209;-61
2022/01/23 14:16:44;;;;;;;3.60;2.80;;;9.80;99.90;;;;;;5055509;28;20216;-62
2022/01/23 14:19:19;;;;;;;2.73;1.97;;;9.80;99.90;;;;;;5054934;28;20221;-61
2022/01/23 14:21:48;;;;;;;3.10;2.70;;;9.70;99.90;;;;;;5055346;28;20736;-62
2022/01/23 14:24:24;;;;;;;2.80;2.30;;;9.60;99.90;;;;;;5055307;28;20275;-61
2022/01/23 14:27:06;;;;;;;2.75;2.40;;;9.50;99.90;;;;;;5034663;28;20441;-60
2022/01/23 14:29:46;;;;;;;2.70;2.17;;;9.50;99.90;;;;;;5034977;28;20245;-61
2022/01/23 14:32:20;;;;;;;2.73;2.13;;;9.40;99.90;;;;;;5035542;28;20206;-65
2022/01/23 14:34:47;;;;;;;4.00;2.17;;;9.40;99.90;;;;;;5035042;28;20203;-65
2022/01/23 14:37:14;;;;;;;2.80;2.20;;;9.40;99.90;;;;;;5028712;28;20296;-62
2022/01/23 14:39:41;;;;;;;2.80;2.10;;;9.30;99.90;;;;;;5033445;28;20222;-62
2022/01/23 14:42:16;;;;;;;2.87;2.30;;;9.20;99.90;;;;;;5034535;28;20674;-62
2022/01/23 14:44:43;;;;;;;2.27;2.00;;;9.20;99.90;;;;;;5034706;28;20244;-64
2022/01/23 14:47:10;;;;;;;2.50;1.80;;;9.20;99.90;;;;;;5040739;28;20292;-65
2022/01/23 14:49:38;;;;;;;2.37;1.80;;;9.30;99.90;;;;;;5034400;28;20285;-65
2022/01/23 14:52:10;;;;;;;2.20;1.90;;;9.20;99.90;;;;;;5035045;28;20544;-67
2022/01/23 14:54:38;;;;;;;3.60;1.90;;;9.00;99.90;;;;;;5034768;28;20260;-64
2022/01/23 14:57:06;;;;;;;2.70;1.90;;;8.80;99.90;;;;;;5034344;28;20237;-67
2022/01/23 14:59:36;;;;;;;2.00;1.80;;;8.60;99.90;;;;;;5033972;28;20222;-64
2022/01/23 15:02:04;;;;;;;6.03;2.37;;;8.50;99.90;;;;;;5034455;28;20241;-68
2022/01/23 15:04:39;;;;;;;3.03;2.10;;;8.50;99.90;;;;;;5034243;28;20896;-64
2022/01/23 15:07:07;;;;;;;2.83;2.03;;;8.40;99.90;;;;;;5034245;28;20238;-66
2022/01/23 15:09:34;;;;;;;2.57;2.17;;;8.30;99.90;;;;;;5034019;28;20301;-68
2022/01/23 15:12:01;;;;;;;2.20;1.90;;;8.30;99.90;;;;;;5034358;28;20206;-65
2022/01/23 15:14:28;;;;;;;3.30;2.00;;;8.40;99.90;;;;;;5034433;28;20206;-65
2022/01/23 15:16:56;;;;;;;3.57;2.60;;;8.50;99.90;;;;;;5033672;28;20229;-65
2022/01/23 15:19:22;;;;;;;4.23;2.67;;;8.40;99.90;;;;;;5033873;28;20230;-66
2022/01/23 15:21:49;;;;;;;3.23;2.37;;;8.30;99.90;;;;;;5034189;28;20210;-65
2022/01/23 15:24:16;;;;;;;9.73;6.50;;;8.20;99.90;;;;;;5034156;28;20222;-67
2022/01/23 15:26:42;;;;;;;5.30;4.30;;;8.10;99.90;;;;;;5033922;28;20693;-59
2022/01/23 15:29:09;;;;;;;7.60;5.47;;;8.10;99.90;;;;;;5033683;28;20256;-60